createdAt,value
2017-10-17T00:01:38.222Z,49.30
2017-10-17T00:04:04.638Z,49.30
2017-10-17T00:06:31.209Z,49.70
2017-10-17T00:08:57.554Z,49.40
2017-10-17T00:11:24.120Z,49.70
2017-10-17T00:13:50.570Z,49.70
2017-10-17T00:16:17.660Z,50.60
2017-10-17T00:18:44.715Z,49.70
2017-10-17T00:21:11.075Z,49.50
2017-10-17T00:23:37.438Z,49.70
2017-10-17T00:26:03.807Z,49.40
2017-10-17T00:28:30.166Z,49.70
2017-10-17T00:30:56.664Z,50.00
2017-10-17T00:33:23.032Z,49.80
2017-10-17T00:35:55.117Z,49.40
2017-10-17T00:38:22.302Z,49.50
2017-10-17T00:40:48.652Z,49.40
2017-10-17T00:43:15.741Z,49.90
2017-10-17T00:45:42.151Z,49.90
2017-10-17T00:48:09.257Z,50.40
2017-10-17T00:50:36.467Z,50.70
2017-10-17T00:53:02.765Z,50.00
2017-10-17T00:55:29.205Z,49.90
2017-10-17T00:57:55.526Z,50.00
2017-10-17T01:00:21.861Z,49.80
2017-10-17T01:02:48.182Z,50.40
2017-10-17T01:05:15.261Z,50.30
2017-10-17T01:07:42.300Z,50.00
2017-10-17T01:10:08.640Z,50.10
2017-10-17T01:12:35.844Z,50.30
2017-10-17T01:15:02.169Z,50.20
2017-10-17T01:17:29.212Z,50.20
2017-10-17T01:19:56.513Z,50.30
2017-10-17T01:22:22.900Z,51.00
2017-10-17T01:24:49.441Z,50.20
2017-10-17T01:27:15.823Z,50.20
2017-10-17T01:29:42.149Z,50.20
2017-10-17T01:32:08.449Z,50.10
2017-10-17T01:34:39.630Z,50.80
2017-10-17T01:37:05.960Z,50.80
2017-10-17T01:39:32.272Z,50.10
2017-10-17T01:41:58.581Z,50.20
2017-10-17T01:44:25.629Z,50.90
2017-10-17T01:46:51.940Z,50.90
2017-10-17T01:49:28.099Z,50.80
2017-10-17T01:51:57.372Z,51.00
2017-10-17T01:54:23.872Z,50.80
2017-10-17T01:56:50.192Z,50.40
2017-10-17T01:59:16.508Z,50.70
2017-10-17T02:01:43.542Z,50.60
2017-10-17T02:04:09.872Z,50.60
2017-10-17T02:06:36.197Z,51.10
2017-10-17T02:09:02.529Z,51.00
2017-10-17T02:11:28.837Z,51.00
2017-10-17T02:13:55.148Z,50.90
2017-10-17T02:16:22.291Z,51.40
2017-10-17T02:18:54.359Z,51.20
2017-10-17T02:21:23.645Z,51.60
2017-10-17T02:23:49.977Z,51.60
2017-10-17T02:26:22.320Z,51.00
2017-10-17T02:28:55.665Z,51.30
2017-10-17T02:31:22.885Z,51.20
2017-10-17T02:33:59.618Z,51.20
2017-10-17T02:36:26.977Z,51.30
2017-10-17T02:38:54.023Z,51.30
2017-10-17T02:41:20.441Z,51.10
2017-10-17T02:43:54.542Z,51.30
2017-10-17T02:46:21.079Z,51.70
2017-10-17T02:49:00.180Z,51.80
2017-10-17T02:51:26.513Z,52.00
2017-10-17T02:53:52.839Z,51.70
2017-10-17T02:56:19.163Z,52.80
2017-10-17T02:58:45.632Z,52.60
2017-10-17T03:01:12.928Z,53.10
2017-10-17T03:03:48.372Z,52.20
2017-10-17T03:06:15.476Z,52.30
2017-10-17T03:08:41.986Z,52.30
2017-10-17T03:11:08.330Z,52.40
2017-10-17T03:13:45.709Z,52.60
2017-10-17T03:16:12.036Z,52.20
2017-10-17T03:18:38.372Z,52.90
2017-10-17T03:21:10.491Z,52.80
2017-10-17T03:23:37.585Z,54.20
2017-10-17T03:26:04.020Z,54.20
2017-10-17T03:28:32.312Z,53.70
2017-10-17T03:31:00.575Z,54.40
2017-10-17T03:33:27.661Z,53.70
2017-10-17T03:35:54.108Z,53.70
2017-10-17T03:38:38.648Z,54.30
2017-10-17T03:41:12.288Z,54.20
2017-10-17T03:43:50.064Z,54.80
2017-10-17T03:46:16.406Z,55.10
2017-10-17T03:48:46.501Z,54.80
2017-10-17T03:51:12.841Z,55.30
2017-10-17T03:53:50.012Z,56.30
2017-10-17T03:56:19.254Z,55.40
2017-10-17T03:58:45.716Z,56.00
2017-10-17T04:01:12.021Z,56.20
2017-10-17T04:03:48.285Z,56.10
2017-10-17T04:06:21.456Z,56.20
2017-10-17T04:09:03.637Z,57.20
2017-10-17T04:11:30.016Z,56.60
2017-10-17T04:14:13.968Z,57.40
2017-10-17T04:30:08.353Z,59.10
2017-10-17T04:32:35.514Z,59.30
2017-10-17T04:35:01.941Z,59.00
2017-10-17T04:37:30.993Z,58.80
2017-10-17T04:39:57.306Z,58.80
2017-10-17T04:42:48.642Z,58.90
2017-10-17T04:45:30.739Z,59.50
2017-10-17T05:01:26.373Z,59.50
2017-10-17T05:03:56.616Z,59.90
2017-10-17T05:06:22.977Z,59.70
2017-10-17T05:09:08.105Z,60.40
2017-10-17T05:11:34.469Z,60.10
2017-10-17T05:14:13.057Z,60.30
2017-10-17T05:16:48.117Z,60.70
2017-10-17T05:19:21.373Z,60.50
2017-10-17T05:22:06.550Z,60.30
2017-10-17T05:27:49.636Z,60.00
2017-10-17T05:30:20.881Z,60.30
2017-10-17T05:32:47.225Z,60.10
2017-10-17T05:35:14.421Z,59.70
2017-10-17T05:37:40.829Z,60.70
2017-10-17T05:40:10.110Z,60.60
2017-10-17T05:42:36.606Z,60.50
2017-10-17T05:45:04.777Z,61.00
2017-10-17T05:47:37.205Z,60.70
2017-10-17T05:50:08.496Z,60.60
2017-10-17T05:52:40.868Z,60.80
2017-10-17T05:55:08.137Z,61.90
2017-10-17T05:57:34.465Z,61.50
2017-10-17T06:00:00.804Z,61.20
2017-10-17T06:02:27.132Z,61.20
2017-10-17T06:04:54.210Z,62.10
2017-10-17T06:07:21.245Z,62.40
2017-10-17T06:09:47.580Z,62.90
2017-10-17T06:12:13.865Z,61.40
2017-10-17T06:14:40.182Z,61.80
2017-10-17T06:17:07.257Z,63.30
2017-10-17T06:19:33.700Z,62.70
2017-10-17T06:22:00.353Z,62.70
2017-10-17T06:24:27.408Z,62.60
2017-10-17T06:26:54.483Z,62.40
2017-10-17T06:29:20.794Z,62.30
2017-10-17T06:31:47.132Z,62.30
2017-10-17T06:34:13.444Z,62.10
2017-10-17T06:36:40.496Z,62.50
2017-10-17T06:39:06.814Z,62.50
2017-10-17T06:41:33.868Z,62.90
2017-10-17T06:44:00.174Z,63.10
2017-10-17T06:46:27.268Z,61.90
2017-10-17T06:48:53.600Z,61.80
2017-10-17T06:51:19.938Z,62.10
2017-10-17T06:53:46.265Z,63.00
2017-10-17T06:56:12.576Z,61.40
2017-10-17T06:58:38.885Z,61.50
2017-10-17T07:01:05.328Z,61.20
2017-10-17T07:03:31.867Z,61.30
2017-10-17T07:05:58.190Z,61.20
2017-10-17T07:08:24.498Z,61.10
2017-10-17T07:10:50.913Z,61.40
2017-10-17T07:13:18.084Z,60.40
2017-10-17T07:15:44.389Z,60.50
2017-10-17T07:18:11.560Z,60.00
2017-10-17T07:20:37.876Z,60.00
2017-10-17T07:23:04.264Z,60.10
2017-10-17T07:25:31.401Z,60.10
2017-10-17T07:27:58.512Z,60.10
2017-10-17T07:30:24.621Z,60.10
2017-10-17T07:32:51.477Z,60.10
2017-10-17T07:35:18.353Z,60.00
2017-10-17T07:37:44.478Z,59.90
2017-10-17T07:40:10.719Z,60.00
2017-10-17T07:42:37.657Z,59.00
2017-10-17T07:45:04.517Z,58.80
2017-10-17T07:47:31.451Z,58.70
2017-10-17T07:49:57.562Z,58.70
2017-10-17T07:52:23.713Z,58.50
2017-10-17T07:54:49.849Z,58.50
2017-10-17T07:57:16.019Z,58.30
2017-10-17T07:59:42.163Z,58.20
2017-10-17T08:02:09.077Z,58.50
2017-10-17T08:04:35.237Z,58.50
2017-10-17T08:07:01.518Z,59.10
2017-10-17T08:09:27.669Z,59.30
2017-10-17T08:11:53.840Z,59.20
2017-10-17T08:14:20.116Z,59.30
2017-10-17T08:16:47.004Z,59.80
2017-10-17T08:19:13.137Z,59.80
2017-10-17T08:21:39.273Z,59.50
2017-10-17T08:24:05.502Z,60.20
2017-10-17T08:26:31.632Z,60.20
2017-10-17T08:28:57.778Z,60.40
2017-10-17T08:31:24.000Z,59.90
2017-10-17T08:33:50.124Z,59.90
2017-10-17T08:36:17.004Z,59.00
2017-10-17T08:38:43.161Z,58.90
2017-10-17T08:41:09.319Z,59.00
2017-10-17T08:43:35.504Z,59.00
2017-10-17T08:46:04.913Z,59.10
2017-10-17T08:48:31.795Z,60.00
2017-10-17T08:50:58.194Z,60.00
2017-10-17T08:53:24.580Z,59.80
2017-10-17T08:55:50.722Z,60.60
2017-10-17T08:58:16.868Z,60.60
2017-10-17T09:00:49.054Z,60.50
2017-10-17T09:03:15.348Z,61.00
2017-10-17T09:05:41.762Z,60.80
2017-10-17T09:08:08.110Z,61.20
2017-10-17T09:10:34.416Z,60.60
2017-10-17T09:13:01.488Z,60.80
2017-10-17T09:15:34.169Z,60.80
2017-10-17T09:18:00.653Z,60.80
2017-10-17T09:20:26.976Z,60.40
2017-10-17T09:22:53.365Z,59.70
2017-10-17T09:25:19.786Z,59.60
2017-10-17T09:27:46.881Z,59.80
2017-10-17T09:30:16.744Z,59.80
2017-10-17T09:32:43.083Z,59.40
2017-10-17T09:35:09.433Z,59.90
2017-10-17T09:37:35.803Z,59.60
2017-10-17T09:40:02.909Z,59.80
2017-10-17T09:42:29.237Z,59.70
2017-10-17T09:45:00.146Z,59.00
2017-10-17T09:47:27.211Z,58.80
2017-10-17T09:49:53.560Z,58.80
2017-10-17T09:52:19.868Z,58.90
2017-10-17T09:54:46.200Z,58.60
2017-10-17T09:57:12.526Z,59.00
2017-10-17T09:59:43.341Z,58.50
2017-10-17T10:02:09.653Z,58.70
2017-10-17T10:04:35.984Z,58.00
2017-10-17T10:07:02.324Z,57.90
2017-10-17T10:09:28.657Z,58.10
2017-10-17T10:11:54.988Z,58.60
2017-10-17T10:14:21.391Z,58.50
2017-10-17T10:16:50.427Z,59.30
2017-10-17T10:19:17.123Z,58.90
2017-10-17T10:21:43.514Z,58.90
2017-10-17T10:24:10.584Z,58.10
2017-10-17T10:26:36.886Z,58.00
2017-10-17T10:29:03.319Z,58.40
2017-10-17T10:31:35.090Z,58.70
2017-10-17T10:34:01.446Z,58.40
2017-10-17T10:36:28.509Z,58.40
2017-10-17T10:38:55.601Z,58.60
2017-10-17T10:41:22.672Z,58.60
2017-10-17T10:43:48.998Z,58.50
2017-10-17T10:46:15.325Z,58.70
2017-10-17T10:48:41.648Z,58.50
2017-10-17T10:51:11.944Z,58.30
2017-10-17T10:53:38.993Z,57.50
2017-10-17T10:56:05.353Z,57.50
2017-10-17T10:58:31.734Z,57.40
2017-10-17T11:00:58.061Z,57.40
2017-10-17T11:03:24.393Z,57.00
2017-10-17T11:05:50.714Z,57.90
2017-10-17T11:08:17.064Z,57.30
2017-10-17T11:10:45.557Z,58.20
2017-10-17T11:13:12.628Z,57.50
2017-10-17T11:15:38.976Z,57.50
2017-10-17T11:18:05.348Z,58.10
2017-10-17T11:20:32.419Z,57.60
2017-10-17T11:22:58.737Z,57.50
2017-10-17T11:25:25.058Z,57.40
2017-10-17T11:27:51.367Z,58.00
2017-10-17T11:30:20.831Z,57.50
2017-10-17T11:32:47.162Z,57.30
2017-10-17T11:35:13.496Z,56.90
2017-10-17T11:37:39.825Z,56.10
2017-10-17T11:40:06.258Z,56.60
2017-10-17T11:42:47.808Z,56.80
2017-10-17T11:45:17.678Z,56.50
2017-10-17T11:47:44.014Z,56.90
2017-10-17T11:52:47.914Z,56.80
2017-10-17T11:55:14.258Z,56.30
2017-10-17T11:57:44.024Z,56.40
2017-10-17T12:00:10.341Z,55.80
2017-10-17T12:02:36.673Z,56.30
2017-10-17T12:05:03.016Z,56.00
2017-10-17T12:07:29.324Z,56.60
2017-10-17T12:09:56.505Z,56.60
2017-10-17T12:12:22.804Z,57.70
2017-10-17T12:14:49.133Z,56.40
2017-10-17T12:17:21.769Z,56.20
2017-10-17T12:19:48.857Z,57.50
2017-10-17T12:22:15.917Z,57.60
2017-10-17T12:24:42.369Z,57.60
2017-10-17T12:27:08.673Z,56.00
2017-10-17T12:29:35.002Z,56.10
2017-10-17T12:32:01.316Z,56.80
2017-10-17T12:34:30.935Z,56.20
2017-10-17T12:36:57.266Z,55.80
2017-10-17T12:39:23.568Z,55.70
2017-10-17T12:41:49.869Z,55.10
2017-10-17T12:44:16.327Z,55.40
2017-10-17T12:46:42.637Z,54.90
2017-10-17T12:49:08.944Z,55.50
2017-10-17T12:51:35.259Z,56.00
2017-10-17T12:54:02.418Z,55.40
2017-10-17T12:56:29.162Z,55.50
2017-10-17T12:58:55.497Z,55.30
2017-10-17T13:01:21.886Z,54.90
2017-10-17T13:03:48.196Z,54.80
2017-10-17T13:06:14.513Z,55.30
2017-10-17T13:08:40.837Z,54.80
2017-10-17T13:11:07.885Z,56.00
2017-10-17T13:13:34.200Z,56.00
2017-10-17T13:16:00.531Z,55.80
2017-10-17T13:18:26.909Z,55.80
2017-10-17T13:20:53.297Z,56.30
2017-10-17T13:23:19.636Z,55.70
2017-10-17T13:25:45.929Z,55.40
2017-10-17T13:28:13.024Z,55.60
2017-10-17T13:30:39.349Z,55.60
2017-10-17T13:33:05.718Z,55.60
2017-10-17T13:35:32.050Z,55.50
2017-10-17T13:37:58.460Z,55.10
2017-10-17T13:40:25.537Z,55.00
2017-10-17T13:42:51.866Z,55.00
2017-10-17T13:45:18.965Z,55.90
2017-10-17T13:47:45.341Z,55.80
2017-10-17T13:50:11.694Z,56.00
2017-10-17T13:52:38.068Z,55.80
2017-10-17T13:55:04.392Z,56.60
2017-10-17T13:57:30.747Z,55.40
2017-10-17T13:59:57.068Z,55.20
2017-10-17T14:02:23.389Z,55.80
2017-10-17T14:04:49.725Z,55.30
2017-10-17T14:07:16.133Z,55.50
2017-10-17T14:09:42.528Z,55.60
2017-10-17T14:12:08.945Z,55.10
2017-10-17T14:14:35.436Z,54.90
2017-10-17T14:17:02.541Z,55.40
2017-10-17T14:19:28.910Z,55.40
2017-10-17T14:21:55.321Z,55.20
2017-10-17T14:24:21.706Z,55.60
2017-10-17T14:26:48.032Z,55.30
2017-10-17T14:29:15.159Z,55.50
2017-10-17T14:31:41.546Z,55.40
2017-10-17T14:34:07.946Z,55.50
2017-10-17T14:36:34.701Z,56.20
2017-10-17T14:39:01.917Z,56.30
2017-10-17T14:41:28.320Z,56.30
2017-10-17T14:43:55.027Z,56.10
2017-10-17T14:46:22.133Z,56.20
2017-10-17T14:48:48.463Z,56.20
2017-10-17T14:51:14.866Z,56.40
2017-10-17T14:53:41.224Z,56.20
2017-10-17T14:56:07.553Z,56.00
2017-10-17T14:58:33.897Z,56.10
2017-10-17T15:01:00.260Z,55.60
2017-10-17T15:03:27.532Z,55.90
2017-10-17T15:05:53.956Z,55.90
2017-10-17T15:08:20.285Z,56.90
2017-10-17T15:10:46.694Z,57.10
2017-10-17T15:13:13.084Z,57.50
2017-10-17T15:15:39.435Z,57.10
2017-10-17T15:18:05.784Z,56.40
2017-10-17T15:20:32.368Z,57.20
2017-10-17T15:22:58.725Z,57.70
2017-10-17T15:25:25.776Z,57.50
2017-10-17T15:27:52.840Z,57.20
2017-10-17T15:30:19.220Z,57.20
2017-10-17T15:32:45.600Z,56.60
2017-10-17T15:35:12.376Z,56.60
2017-10-17T15:37:38.725Z,57.60
2017-10-17T15:40:05.033Z,58.20
2017-10-17T15:42:32.209Z,59.30
2017-10-17T15:44:58.571Z,59.30
2017-10-17T15:47:24.859Z,59.80
2017-10-17T15:49:51.249Z,59.80
2017-10-17T15:52:17.566Z,59.90
2017-10-17T15:57:15.982Z,60.50
2017-10-17T15:59:42.577Z,60.80
2017-10-17T16:02:08.896Z,61.20
2017-10-17T16:04:35.902Z,61.30
2017-10-17T16:07:02.285Z,61.20
2017-10-17T16:09:28.806Z,61.20
2017-10-17T16:12:08.535Z,61.10
2017-10-17T16:14:35.394Z,61.90
2017-10-17T16:17:01.549Z,61.90
2017-10-17T16:19:27.653Z,62.00
2017-10-17T16:21:53.761Z,61.70
2017-10-17T16:24:19.850Z,61.90
2017-10-17T16:26:46.708Z,62.20
2017-10-17T16:29:13.590Z,62.10
2017-10-17T16:31:40.434Z,62.10
2017-10-17T16:34:06.630Z,62.30
2017-10-17T16:36:32.739Z,62.90
2017-10-17T16:38:59.608Z,62.60
2017-10-17T16:41:25.745Z,62.50
2017-10-17T16:43:51.862Z,63.40
2017-10-17T16:46:17.978Z,62.90
2017-10-17T16:48:44.116Z,62.90
2017-10-17T16:51:10.337Z,62.90
2017-10-17T16:53:36.473Z,63.40
2017-10-17T16:56:02.606Z,63.10
2017-10-17T16:58:28.712Z,63.70
2017-10-17T17:00:54.847Z,63.30
2017-10-17T17:03:20.965Z,63.40
2017-10-17T17:05:47.823Z,64.20
2017-10-17T17:08:13.951Z,64.10
2017-10-17T17:10:40.812Z,63.80
2017-10-17T17:13:07.670Z,63.60
2017-10-17T17:15:34.557Z,63.60
2017-10-17T17:18:00.672Z,63.60
2017-10-17T17:20:27.541Z,64.20
2017-10-17T17:22:54.008Z,64.20
2017-10-17T17:25:20.113Z,64.20
2017-10-17T17:27:46.216Z,64.40
2017-10-17T17:30:12.336Z,64.00
2017-10-17T17:32:38.565Z,63.70
2017-10-17T17:35:04.713Z,64.50
2017-10-17T17:37:30.854Z,64.60
2017-10-17T17:39:56.977Z,64.40
2017-10-17T17:42:23.461Z,64.30
2017-10-17T17:44:50.317Z,64.40
2017-10-17T17:47:16.440Z,64.30
2017-10-17T17:49:42.736Z,64.20
2017-10-17T17:52:09.269Z,64.60
2017-10-17T17:54:35.475Z,64.50
2017-10-17T17:57:01.705Z,64.20
2017-10-17T17:59:27.816Z,64.80
2017-10-17T18:01:53.962Z,64.80
2017-10-17T18:04:20.081Z,64.10
2017-10-17T18:06:46.270Z,66.10
2017-10-17T18:09:12.396Z,64.50
2017-10-17T18:11:38.545Z,65.00
2017-10-17T18:14:05.790Z,65.20
2017-10-17T18:16:32.046Z,65.10
2017-10-17T18:18:58.189Z,64.90
2017-10-17T18:21:27.941Z,65.70
2017-10-17T18:23:54.424Z,65.90
2017-10-17T18:26:20.565Z,64.90
2017-10-17T18:28:46.931Z,65.10
2017-10-17T18:31:13.070Z,65.00
2017-10-17T18:33:39.226Z,65.90
2017-10-17T18:36:07.373Z,65.30
2017-10-17T18:38:33.600Z,66.30
2017-10-17T18:40:59.740Z,66.00
2017-10-17T18:43:25.875Z,66.30
2017-10-17T18:45:55.110Z,66.90
2017-10-17T18:48:21.388Z,68.70
2017-10-17T18:50:47.585Z,65.70
2017-10-17T18:53:13.818Z,67.50
2017-10-17T18:55:40.183Z,66.50
2017-10-17T18:58:06.373Z,66.10
2017-10-17T19:00:32.501Z,65.30
2017-10-17T19:02:58.709Z,66.00
2017-10-17T19:05:26.071Z,66.10
2017-10-17T19:07:52.960Z,65.60
2017-10-17T19:10:19.089Z,66.00
2017-10-17T19:12:45.979Z,65.50
2017-10-17T19:15:12.114Z,66.00
2017-10-17T19:17:38.248Z,65.50
2017-10-17T19:20:04.384Z,65.10
2017-10-17T19:22:30.509Z,65.70
2017-10-17T19:24:57.426Z,66.10
2017-10-17T19:27:23.578Z,66.10
2017-10-17T19:29:50.063Z,67.50
2017-10-17T19:32:16.238Z,66.00
2017-10-17T19:34:42.482Z,66.30
2017-10-17T19:37:08.700Z,66.20
2017-10-17T19:39:34.837Z,66.00
2017-10-17T19:42:00.953Z,65.70
2017-10-17T19:44:27.081Z,65.50
2017-10-17T19:46:54.017Z,69.80
2017-10-17T19:49:20.249Z,69.80
2017-10-17T19:51:47.117Z,68.30
2017-10-17T19:54:14.000Z,67.20
2017-10-17T19:56:40.109Z,67.20
2017-10-17T19:59:07.808Z,66.80
2017-10-17T20:01:34.018Z,66.80
2017-10-17T20:04:00.244Z,66.40
2017-10-17T20:06:26.398Z,67.30
2017-10-17T20:08:52.573Z,67.80
2017-10-17T20:11:18.821Z,66.40
2017-10-17T20:13:45.022Z,66.60
2017-10-17T20:16:11.919Z,66.90
2017-10-17T20:18:38.039Z,66.90
2017-10-17T20:21:06.116Z,66.50
2017-10-17T20:23:32.316Z,66.50
2017-10-17T20:25:58.451Z,68.30
2017-10-17T20:28:24.745Z,66.70
2017-10-17T20:30:50.922Z,66.20
2017-10-17T20:33:17.213Z,67.00
2017-10-17T20:35:44.111Z,67.40
2017-10-17T20:38:10.289Z,67.40
2017-10-17T20:40:36.437Z,67.20
2017-10-17T20:43:02.585Z,67.70
2017-10-17T20:45:29.609Z,66.40
2017-10-17T20:47:55.725Z,66.40
2017-10-17T20:50:21.954Z,66.00
2017-10-17T20:52:48.074Z,66.60
2017-10-17T20:55:14.204Z,66.80
2017-10-17T20:57:41.128Z,67.30
2017-10-17T21:00:07.275Z,67.30
2017-10-17T21:02:33.641Z,66.70
2017-10-17T21:04:59.967Z,66.50
2017-10-17T21:07:26.269Z,67.30
2017-10-17T21:09:52.696Z,67.60
2017-10-17T21:12:19.009Z,67.20
2017-10-17T21:14:45.353Z,68.10
2017-10-17T21:17:12.464Z,67.40
2017-10-17T21:19:38.787Z,67.40
2017-10-17T21:22:05.089Z,68.20
2017-10-17T21:24:32.161Z,67.50
2017-10-17T21:26:59.062Z,67.50
2017-10-17T21:29:25.246Z,67.60
2017-10-17T21:31:52.116Z,67.50
2017-10-17T21:34:18.233Z,67.40
2017-10-17T21:36:44.537Z,67.90
2017-10-17T21:39:11.894Z,67.10
2017-10-17T21:41:38.048Z,67.10
2017-10-17T21:44:04.202Z,67.20
2017-10-17T21:46:30.305Z,67.50
2017-10-17T21:48:56.646Z,67.70
2017-10-17T21:51:22.993Z,67.60
2017-10-17T21:53:49.338Z,67.50
2017-10-17T21:56:15.659Z,67.80
2017-10-17T21:58:42.005Z,67.60
2017-10-17T22:01:09.261Z,67.70
2017-10-17T22:03:35.576Z,67.80
2017-10-17T22:06:01.919Z,66.30
2017-10-17T22:08:29.572Z,67.10
2017-10-17T22:10:55.898Z,67.10
2017-10-17T22:13:22.237Z,67.20
2017-10-17T22:15:48.604Z,67.10
2017-10-17T22:18:15.652Z,67.40
2017-10-17T22:20:41.777Z,67.40
2017-10-17T22:23:08.071Z,67.10
2017-10-17T22:25:34.437Z,66.80
2017-10-17T22:28:00.774Z,66.70
2017-10-17T22:30:27.101Z,67.30
2017-10-17T22:32:53.442Z,67.40
2017-10-17T22:35:19.793Z,67.60
2017-10-17T22:37:46.868Z,67.40
2017-10-17T22:40:13.188Z,67.40
2017-10-17T22:42:39.497Z,67.30
2017-10-17T22:45:05.834Z,67.30
2017-10-17T22:47:32.132Z,67.30
2017-10-17T22:49:58.468Z,67.10
2017-10-17T22:52:24.834Z,67.20
2017-10-17T22:54:51.186Z,67.40
2017-10-17T22:57:18.234Z,67.20
2017-10-17T22:59:44.554Z,67.10
2017-10-17T23:02:10.873Z,66.30
2017-10-17T23:04:37.232Z,67.00
2017-10-17T23:07:04.309Z,66.60
2017-10-17T23:09:30.888Z,66.70
2017-10-17T23:11:57.211Z,67.00
2017-10-17T23:14:23.528Z,66.90
2017-10-17T23:17:02.984Z,66.90
2017-10-17T23:19:42.420Z,66.40
2017-10-17T23:22:08.568Z,66.40
2017-10-17T23:24:35.631Z,66.90
2017-10-17T23:27:02.579Z,66.90
2017-10-17T23:29:29.643Z,66.90
2017-10-17T23:31:55.964Z,66.80
2017-10-17T23:34:22.300Z,67.30
2017-10-17T23:36:48.658Z,66.70
2017-10-17T23:39:15.041Z,67.40
2017-10-17T23:41:41.370Z,66.80
2017-10-17T23:44:07.728Z,67.00
2017-10-17T23:46:34.057Z,66.80
2017-10-17T23:49:00.530Z,66.70
2017-10-17T23:51:26.865Z,67.70
2017-10-17T23:53:53.189Z,68.70
2017-10-17T23:56:20.249Z,67.70
2017-10-17T23:58:47.308Z,66.70
